Time;durP1;ratioP1;P1;durP2;ratioP2;P2;SDS_P1;SDS_P2;PMS_P1;PMS_P2;Temp;Humidity;BMP_temperature;BMP_pressure;BME280_temperature;BME280_humidity;BME280_pressure;Samples;Min_cycle;Max_cycle;Signal;HPM_P1;HPM_P2
2022/09/04 00:01:22;;;;;;;11.85;2.92;;;22.00;50.20;;;;;;5013914;28;19909;-79
2022/09/04 00:03:47;;;;;;;7.32;3.28;;;22.00;50.20;;;;;;5025309;28;20030;-79
2022/09/04 00:06:19;;;;;;;7.38;3.65;;;22.00;50.20;;;;;;5034897;28;20556;-79
2022/09/04 00:08:51;;;;;;;9.98;3.45;;;22.00;50.20;;;;;;5044182;28;20076;-78
2022/09/04 00:11:44;;;;;;;12.23;3.38;;;22.00;50.30;;;;;;5035662;28;20104;-79
2022/09/04 00:14:36;;;;;;;11.43;3.60;;;22.00;50.30;;;;;;5038728;28;20428;-80
2022/09/04 00:17:09;;;;;;;15.23;2.83;;;22.00;50.40;;;;;;5036687;28;20029;-79
2022/09/04 00:19:46;;;;;;;11.10;3.17;;;22.00;50.40;;;;;;5043477;28;20029;-79
2022/09/04 00:22:34;;;;;;;6.22;3.13;;;22.00;50.40;;;;;;5040295;28;20423;-80
2022/09/04 00:25:12;;;;;;;12.70;3.35;;;22.00;50.50;;;;;;5036498;28;20029;-79
2022/09/04 00:27:44;;;;;;;8.25;3.58;;;22.00;50.60;;;;;;5037445;28;20116;-79
2022/09/04 00:30:19;;;;;;;8.80;3.20;;;22.00;50.60;;;;;;5031859;28;20104;-79
2022/09/04 00:33:04;;;;;;;7.22;3.17;;;22.00;50.70;;;;;;5018733;28;20100;-78
2022/09/04 00:35:42;;;;;;;10.18;3.30;;;22.00;50.80;;;;;;5033999;28;20032;-79
2022/09/04 00:38:39;;;;;;;11.50;3.33;;;22.00;50.80;;;;;;5033461;28;20517;-78
2022/09/04 00:41:31;;;;;;;12.13;2.80;;;22.00;50.70;;;;;;5033832;28;20477;-80
2022/09/04 00:44:34;;;;;;;7.43;2.90;;;22.00;50.90;;;;;;5033548;28;20079;-78
2022/09/04 00:47:38;;;;;;;6.40;3.00;;;22.00;51.00;;;;;;5043687;28;20040;-78
2022/09/04 00:50:27;;;;;;;5.53;3.03;;;22.00;50.90;;;;;;5042373;28;20388;-78
2022/09/04 00:53:15;;;;;;;8.60;3.23;;;22.00;51.00;;;;;;5043690;28;20459;-77
2022/09/04 00:55:46;;;;;;;6.30;2.78;;;22.00;51.10;;;;;;5039530;28;20029;-77
2022/09/04 00:58:26;;;;;;;7.07;3.47;;;21.90;51.40;;;;;;5040673;28;20025;-80
2022/09/04 01:00:55;;;;;;;9.10;3.00;;;22.00;51.10;;;;;;5032953;28;20034;-80
2022/09/04 01:03:36;;;;;;;7.95;3.22;;;22.00;51.20;;;;;;5004526;28;20162;-80
2022/09/04 01:06:17;;;;;;;8.45;3.15;;;21.90;51.20;;;;;;5041822;28;20040;-79
2022/09/04 01:09:05;;;;;;;9.20;3.05;;;22.00;51.30;;;;;;5028674;28;20025;-79
2022/09/04 01:11:38;;;;;;;6.38;3.00;;;21.90;51.30;;;;;;5022255;28;20029;-77
2022/09/04 01:14:28;;;;;;;6.57;3.03;;;21.90;51.70;;;;;;5053406;28;20033;-78
2022/09/04 01:17:08;;;;;;;6.97;2.92;;;21.90;51.50;;;;;;5022186;28;20022;-77
2022/09/04 01:19:49;;;;;;;;;;;21.90;51.60;;;;;;5035832;28;20033;-78
2022/09/04 01:22:26;;;;;;;9.90;3.08;;;21.90;51.60;;;;;;5040934;28;19908;-78
2022/09/04 01:25:12;;;;;;;5.15;2.67;;;21.90;51.70;;;;;;5051252;28;20108;-79
2022/09/04 01:28:02;;;;;;;6.40;2.92;;;22.00;51.60;;;;;;5032133;28;20033;-78
2022/09/04 01:30:35;;;;;;;7.45;3.20;;;22.00;51.80;;;;;;5041504;28;20026;-78
2022/09/04 01:33:28;;;;;;;7.75;3.05;;;21.90;51.70;;;;;;5043950;28;20032;-77
2022/09/04 01:36:09;;;;;;;7.65;3.20;;;22.00;51.90;;;;;;5049050;28;20025;-79
2022/09/04 01:38:50;;;;;;;7.10;2.88;;;21.90;51.90;;;;;;5051404;28;20032;-79
2022/09/04 01:41:16;;;;;;;6.72;2.88;;;21.90;51.80;;;;;;5049269;28;20074;-78
2022/09/04 01:43:42;;;;;;;4.63;2.63;;;21.90;51.90;;;;;;5068018;22;20435;-71
2022/09/04 01:46:11;;;;;;;7.90;2.78;;;21.90;51.90;;;;;;5032374;28;20493;-70
2022/09/04 01:48:55;;;;;;;14.57;3.10;;;21.90;52.60;;;;;;5034087;28;20483;-70
2022/09/04 01:51:47;;;;;;;9.38;2.70;;;21.90;52.50;;;;;;5034847;28;20150;-71
2022/09/04 01:54:40;;;;;;;15.98;3.88;;;21.90;52.50;;;;;;5022099;28;20124;-71
2022/09/04 01:57:18;;;;;;;10.35;3.65;;;22.00;52.20;;;;;;5014273;28;20029;-71
2022/09/04 01:59:59;;;;;;;8.85;2.80;;;22.00;52.30;;;;;;5030230;28;20117;-70
2022/09/04 02:02:42;;;;;;;12.57;3.05;;;22.00;52.50;;;;;;5032103;28;20118;-71
2022/09/04 02:05:19;;;;;;;9.38;2.80;;;22.00;52.50;;;;;;5032237;28;20021;-71
2022/09/04 02:08:02;;;;;;;7.60;2.70;;;22.00;52.30;;;;;;5032366;28;20499;-71
2022/09/04 02:10:47;;;;;;;9.85;3.63;;;22.00;52.30;;;;;;5014398;28;20385;-71
2022/09/04 02:13:52;;;;;;;9.52;2.78;;;22.00;52.50;;;;;;5032264;28;20057;-71
2022/09/04 02:16:25;;;;;;;7.65;2.90;;;22.00;52.60;;;;;;5014239;28;20508;-71
2022/09/04 02:19:01;;;;;;;8.30;2.80;;;22.00;52.70;;;;;;5031871;28;20037;-71
2022/09/04 02:21:35;;;;;;;7.55;2.70;;;21.90;52.50;;;;;;5032254;28;20120;-71
2022/09/04 02:24:09;;;;;;;7.53;2.72;;;22.00;52.70;;;;;;5032025;28;20035;-71
2022/09/04 02:26:47;;;;;;;7.03;3.00;;;22.00;52.60;;;;;;5031879;28;20034;-71
2022/09/04 02:29:31;;;;;;;8.13;2.75;;;21.90;52.60;;;;;;5014268;28;20037;-70
2022/09/04 02:32:09;;;;;;;8.20;3.15;;;21.90;52.60;;;;;;5031704;28;20052;-71
2022/09/04 02:34:40;;;;;;;8.82;2.90;;;21.90;52.70;;;;;;5031981;28;20044;-70
2022/09/04 02:37:41;;;;;;;8.32;2.90;;;21.90;52.70;;;;;;5014065;28;20029;-71
2022/09/04 02:40:13;;;;;;;7.72;2.92;;;21.90;52.70;;;;;;4962377;28;20383;-70
2022/09/04 02:43:14;;;;;;;10.05;2.78;;;21.90;52.70;;;;;;5031599;28;20108;-71
2022/09/04 02:46:05;;;;;;;5.93;2.50;;;21.90;52.90;;;;;;5031856;28;20107;-71
2022/09/04 02:48:45;;;;;;;11.45;2.72;;;21.90;52.70;;;;;;5031396;28;20430;-71
2022/09/04 02:51:49;;;;;;;8.18;2.88;;;21.90;53.40;;;;;;5014267;28;20272;-70
2022/09/04 02:54:52;;;;;;;7.80;3.22;;;21.90;52.90;;;;;;5030777;28;20017;-71
2022/09/04 02:57:38;;;;;;;7.40;2.80;;;21.90;52.90;;;;;;5010531;28;20409;-71
2022/09/04 03:00:15;;;;;;;9.63;3.00;;;21.90;52.90;;;;;;5022327;28;20036;-71
2022/09/04 03:02:54;;;;;;;10.27;3.05;;;21.90;53.00;;;;;;5030936;28;20025;-71
2022/09/04 03:05:24;;;;;;;8.73;2.80;;;21.90;52.90;;;;;;5031675;28;20112;-70
2022/09/04 03:08:10;;;;;;;8.55;3.45;;;21.90;53.00;;;;;;5014051;28;20132;-71
2022/09/04 03:10:56;;;;;;;6.35;2.80;;;21.90;53.00;;;;;;4993789;28;20111;-71
2022/09/04 03:13:28;;;;;;;8.27;2.83;;;21.90;53.00;;;;;;5003972;28;20018;-71
2022/09/04 03:16:11;;;;;;;10.00;2.88;;;21.90;53.00;;;;;;5029644;28;20027;-70
2022/09/04 03:19:06;;;;;;;10.40;2.58;;;21.90;53.00;;;;;;5031015;28;20022;-71
2022/09/04 03:21:44;;;;;;;7.40;2.95;;;21.90;53.10;;;;;;5011868;28;20141;-70
2022/09/04 03:24:16;;;;;;;10.60;3.03;;;21.90;53.10;;;;;;5029420;28;20025;-70
2022/09/04 03:27:00;;;;;;;7.45;2.78;;;21.90;53.10;;;;;;5013655;28;20549;-71
2022/09/04 03:29:52;;;;;;;5.55;2.60;;;21.90;53.10;;;;;;5013380;28;20366;-71
2022/09/04 03:32:30;;;;;;;7.95;2.80;;;21.90;53.20;;;;;;5031214;28;20053;-71
2022/09/04 03:35:17;;;;;;;9.55;2.63;;;21.90;53.20;;;;;;5031253;28;20028;-71
2022/09/04 03:37:59;;;;;;;8.32;2.67;;;21.90;53.20;;;;;;5031225;28;20060;-71
2022/09/04 03:40:36;;;;;;;6.10;2.90;;;21.90;53.30;;;;;;5030930;28;20027;-71
2022/09/04 03:43:26;;;;;;;7.70;2.60;;;21.90;53.30;;;;;;5029366;28;20049;-71
2022/09/04 03:46:03;;;;;;;7.93;2.55;;;21.90;53.30;;;;;;5030950;28;20036;-71
2022/09/04 03:48:54;;;;;;;5.85;2.88;;;21.90;53.20;;;;;;5030944;28;20029;-71
2022/09/04 03:51:44;;;;;;;9.27;3.22;;;21.90;53.30;;;;;;5032034;28;20029;-71
2022/09/04 03:54:36;;;;;;;8.63;2.88;;;21.90;53.30;;;;;;5019386;28;20236;-71
2022/09/04 03:57:50;;;;;;;7.15;2.75;;;21.90;53.30;;;;;;5034184;28;20063;-71
2022/09/04 04:00:20;;;;;;;10.45;2.60;;;21.90;53.30;;;;;;4935140;29;20067;-71
2022/09/04 04:02:58;;;;;;;7.05;2.88;;;21.90;53.30;;;;;;5007885;28;20038;-71
2022/09/04 04:05:55;;;;;;;6.95;2.63;;;21.90;53.30;;;;;;5019382;28;20028;-71
2022/09/04 04:08:55;;;;;;;9.25;2.83;;;22.00;53.40;;;;;;4997828;28;20049;-71
2022/09/04 04:11:24;;;;;;;6.00;2.63;;;21.90;53.40;;;;;;5034253;28;20112;-71
2022/09/04 04:14:29;;;;;;;5.47;2.85;;;21.90;53.50;;;;;;5034433;28;20092;-71
2022/09/04 04:17:04;;;;;;;7.85;2.72;;;21.90;53.50;;;;;;5026190;28;20026;-71
2022/09/04 04:19:56;;;;;;;8.45;2.95;;;21.90;53.50;;;;;;5033472;28;20025;-71
2022/09/04 04:22:31;;;;;;;7.95;2.90;;;21.90;53.60;;;;;;5014776;28;20032;-71
2022/09/04 04:25:23;;;;;;;6.07;3.00;;;21.90;53.60;;;;;;5028909;28;20382;-71
2022/09/04 04:27:52;;;;;;;7.05;2.72;;;21.90;53.70;;;;;;5034204;28;20029;-72
2022/09/04 04:30:18;;;;;;;8.32;3.20;;;21.90;53.70;;;;;;5034074;28;20429;-71
2022/09/04 04:33:08;;;;;;;7.65;2.60;;;21.90;53.70;;;;;;5034225;28;20071;-71
2022/09/04 04:35:58;;;;;;;;;;;21.90;53.80;;;;;;5034872;28;20100;-71
2022/09/04 04:38:40;;;;;;;;;;;21.90;53.80;;;;;;5026609;28;19909;-71
2022/09/04 04:41:12;;;;;;;8.90;2.55;;;21.90;53.70;;;;;;5016263;28;19908;-72
2022/09/04 04:43:37;;;;;;;7.20;2.70;;;21.90;53.80;;;;;;5033800;28;20057;-71
2022/09/04 04:46:10;;;;;;;6.15;2.80;;;21.90;53.80;;;;;;5033117;28;20072;-71
2022/09/04 04:49:13;;;;;;;6.38;2.40;;;21.90;53.90;;;;;;5033596;28;20490;-72
2022/09/04 04:52:02;;;;;;;6.57;2.72;;;21.90;53.90;;;;;;5033700;28;20028;-71
2022/09/04 04:54:45;;;;;;;6.43;2.80;;;21.90;53.90;;;;;;5033901;28;20053;-72
2022/09/04 04:57:39;;;;;;;6.22;2.90;;;21.90;54.00;;;;;;5033501;28;20456;-72
2022/09/04 05:00:35;;;;;;;5.20;2.50;;;21.90;54.10;;;;;;5033161;28;20083;-72
2022/09/04 05:03:31;;;;;;;8.88;2.80;;;21.90;54.10;;;;;;5011872;28;20034;-71
2022/09/04 05:06:02;;;;;;;6.32;2.20;;;21.90;54.10;;;;;;5025260;28;20108;-72
2022/09/04 05:09:03;;;;;;;5.88;2.28;;;21.90;54.10;;;;;;4995195;28;20470;-72
2022/09/04 05:11:44;;;;;;;5.05;2.55;;;21.90;54.10;;;;;;5008712;28;20505;-72
2022/09/04 05:14:25;;;;;;;9.52;3.20;;;21.90;54.90;;;;;;5033208;28;20083;-71
2022/09/04 05:17:02;;;;;;;5.82;3.03;;;21.90;54.30;;;;;;5033337;28;20138;-72
2022/09/04 05:20:04;;;;;;;6.80;2.42;;;21.90;54.90;;;;;;5033331;28;20025;-72
2022/09/04 05:22:33;;;;;;;4.35;2.08;;;21.80;52.70;;;;;;5032439;28;20326;-71
2022/09/04 05:25:08;;;;;;;7.03;2.15;;;21.70;50.20;;;;;;5033163;28;20029;-71
2022/09/04 05:28:02;;;;;;;3.67;1.70;;;21.60;49.00;;;;;;5033182;28;20035;-72
2022/09/04 05:30:46;;;;;;;5.85;1.90;;;21.50;48.60;;;;;;5013380;28;20034;-72
2022/09/04 05:33:20;;;;;;;5.68;1.75;;;21.50;47.50;;;;;;5027716;28;20022;-71
2022/09/04 05:35:57;;;;;;;7.05;1.80;;;21.50;57.80;;;;;;5032945;28;20021;-71
2022/09/04 05:38:40;;;;;;;3.13;1.80;;;21.40;47.30;;;;;;5032427;28;20441;-71
2022/09/04 05:41:40;;;;;;;4.43;1.60;;;21.50;58.50;;;;;;5032949;28;20028;-72
2022/09/04 05:44:35;;;;;;;5.68;2.13;;;21.40;53.40;;;;;;5032656;28;20071;-72
2022/09/04 05:47:19;;;;;;;6.78;2.88;;;21.40;50.30;;;;;;5032897;28;20083;-72
2022/09/04 05:50:12;;;;;;;8.77;3.85;;;21.40;53.20;;;;;;5032321;28;20026;-72
2022/09/04 05:52:44;;;;;;;11.52;4.15;;;21.40;49.30;;;;;;5032607;28;20034;-72
2022/09/04 05:55:20;;;;;;;6.93;3.22;;;;;;;;;;5013349;28;20053;-70
2022/09/04 05:57:57;;;;;;;5.82;2.97;;;21.30;46.30;;;;;;5022748;28;20038;-71
2022/09/04 06:00:30;;;;;;;7.88;2.30;;;21.30;49.50;;;;;;5014568;28;20527;-71
2022/09/04 06:03:38;;;;;;;4.10;1.92;;;21.30;49.60;;;;;;5014148;28;20404;-71
2022/09/04 06:06:06;;;;;;;8.75;1.90;;;21.30;47.30;;;;;;4975518;28;20176;-71
2022/09/04 06:08:52;;;;;;;3.40;2.17;;;21.20;47.70;;;;;;5021317;28;20021;-71
2022/09/04 06:11:40;;;;;;;5.40;2.47;;;21.20;46.10;;;;;;5014401;28;20037;-71
2022/09/04 06:14:40;;;;;;;5.35;2.20;;;21.20;50.10;;;;;;5031238;28;20136;-71
2022/09/04 06:17:42;;;;;;;7.18;2.08;;;21.20;52.90;;;;;;4997811;28;20433;-71
2022/09/04 06:20:45;;;;;;;3.25;2.10;;;21.20;50.30;;;;;;5022543;28;20038;-71
2022/09/04 06:23:44;;;;;;;5.18;2.20;;;21.20;50.30;;;;;;5032119;28;20041;-71
2022/09/04 06:26:45;;;;;;;6.93;2.20;;;21.20;55.90;;;;;;5014620;28;20326;-71
2022/09/04 06:29:37;;;;;;;4.45;2.38;;;21.10;52.50;;;;;;5031949;28;20103;-71
2022/09/04 06:32:30;;;;;;;4.22;2.60;;;21.10;55.50;;;;;;5032059;28;20052;-71
2022/09/04 06:35:14;;;;;;;5.55;2.45;;;21.20;56.60;;;;;;5014672;28;20025;-71
2022/09/04 06:38:18;;;;;;;6.70;2.50;;;21.20;56.60;;;;;;5012376;28;20030;-71
2022/09/04 06:41:15;;;;;;;5.43;2.58;;;21.20;58.70;;;;;;4985137;28;20034;-71
2022/09/04 06:44:27;;;;;;;6.32;2.40;;;21.20;58.10;;;;;;5030923;28;20056;-71
2022/09/04 06:47:14;;;;;;;5.13;2.38;;;21.20;56.80;;;;;;5014193;28;20056;-71
2022/09/04 06:49:58;;;;;;;5.78;2.58;;;21.10;52.80;;;;;;5015737;28;20618;-71
2022/09/04 06:52:37;;;;;;;6.05;3.10;;;21.10;54.20;;;;;;5031564;28;20026;-71
2022/09/04 06:55:24;;;;;;;6.57;3.20;;;21.10;59.00;;;;;;5031549;28;20025;-70
2022/09/04 06:58:09;;;;;;;9.60;4.10;;;;;;;;;;5031588;28;20329;-70
2022/09/04 07:00:45;;;;;;;7.80;3.10;;;21.10;56.70;;;;;;5031205;28;20489;-70
2022/09/04 07:03:17;;;;;;;4.50;2.58;;;21.10;56.80;;;;;;5013641;28;20025;-70
2022/09/04 07:05:57;;;;;;;7.00;2.60;;;21.10;56.60;;;;;;5031329;28;20105;-71
2022/09/04 07:08:44;;;;;;;5.25;2.53;;;21.10;56.60;;;;;;5031163;28;20524;-71
2022/09/04 07:11:16;;;;;;;5.90;2.60;;;21.20;56.50;;;;;;5013700;28;20030;-71
2022/09/04 07:14:26;;;;;;;7.32;2.33;;;21.20;56.70;;;;;;5031128;28;20478;-71
2022/09/04 07:17:18;;;;;;;6.00;2.20;;;21.20;56.80;;;;;;5031395;28;20026;-70
2022/09/04 07:19:56;;;;;;;5.72;2.28;;;21.20;56.90;;;;;;5030994;28;20128;-70
2022/09/04 07:22:32;;;;;;;6.30;2.50;;;21.20;57.00;;;;;;5030974;28;20049;-70
2022/09/04 07:25:10;;;;;;;8.98;2.40;;;21.30;57.20;;;;;;5031834;28;20033;-70
2022/09/04 07:28:10;;;;;;;5.15;2.55;;;21.30;57.30;;;;;;5035237;28;20030;-70
2022/09/04 07:30:53;;;;;;;5.63;2.10;;;21.30;57.40;;;;;;5034593;28;20021;-70
2022/09/04 07:33:30;;;;;;;4.55;2.25;;;21.30;57.60;;;;;;5034800;28;20022;-70
2022/09/04 07:36:12;;;;;;;5.72;2.15;;;21.30;57.60;;;;;;5008299;28;20525;-70
2022/09/04 07:39:03;;;;;;;6.97;2.10;;;21.40;57.70;;;;;;5035121;28;20018;-70
2022/09/04 07:41:52;;;;;;;3.88;2.10;;;21.40;57.70;;;;;;5014354;28;20026;-70
2022/09/04 07:44:32;;;;;;;3.70;1.90;;;21.40;57.80;;;;;;5032113;28;20030;-70
2022/09/04 07:47:21;;;;;;;4.40;2.50;;;21.40;58.00;;;;;;5034992;28;20034;-70
2022/09/04 07:50:34;;;;;;;5.22;2.10;;;21.40;58.00;;;;;;5016232;28;20022;-70
2022/09/04 07:53:20;;;;;;;4.20;2.17;;;21.40;58.00;;;;;;5030753;28;20041;-70
2022/09/04 07:55:49;;;;;;;3.30;2.40;;;21.50;58.20;;;;;;5034553;28;20151;-70
2022/09/04 07:58:51;;;;;;;4.78;2.28;;;21.50;58.20;;;;;;5016888;28;20105;-70
2022/09/04 08:01:33;;;;;;;5.88;2.53;;;21.60;58.30;;;;;;5034494;28;20021;-70
2022/09/04 08:04:32;;;;;;;5.60;2.33;;;21.60;58.20;;;;;;5034811;28;20032;-70
2022/09/04 08:07:00;;;;;;;3.78;2.13;;;21.60;58.30;;;;;;5034522;28;20120;-70
2022/09/04 08:09:53;;;;;;;5.72;2.47;;;21.60;58.30;;;;;;5034196;28;20032;-70
2022/09/04 08:12:45;;;;;;;4.75;2.40;;;21.60;58.60;;;;;;5017184;28;20025;-70
2022/09/04 08:15:25;;;;;;;5.25;2.22;;;21.60;58.40;;;;;;5017169;28;20033;-70
2022/09/04 08:17:53;;;;;;;4.35;2.35;;;21.60;58.70;;;;;;5034305;28;20029;-70
2022/09/04 08:20:44;;;;;;;5.18;2.30;;;21.70;59.10;;;;;;5016589;28;20536;-70
2022/09/04 08:23:09;;;;;;;7.35;2.40;;;21.70;58.90;;;;;;5034026;28;20029;-71
2022/09/04 08:26:14;;;;;;;3.97;2.10;;;21.70;59.10;;;;;;5016837;28;20033;-71
2022/09/04 08:28:58;;;;;;;7.95;2.70;;;21.70;59.50;;;;;;5033922;28;20032;-71
2022/09/04 08:31:43;;;;;;;8.75;2.20;;;21.70;60.10;;;;;;5016615;28;20029;-71
2022/09/04 08:34:32;;;;;;;5.45;2.13;;;21.80;59.70;;;;;;5014481;28;20029;-71
2022/09/04 08:37:07;;;;;;;3.88;2.30;;;21.70;59.50;;;;;;5029653;28;20499;-70
2022/09/04 08:40:06;;;;;;;12.77;2.80;;;21.80;60.20;;;;;;5033944;28;20033;-73
2022/09/04 08:42:52;;;;;;;10.10;2.65;;;21.80;60.40;;;;;;5032884;28;20038;-72
2022/09/04 08:45:56;;;;;;;14.55;3.20;;;21.80;60.30;;;;;;5033957;28;20070;-72
2022/09/04 08:49:00;;;;;;;8.70;3.08;;;21.90;60.60;;;;;;4952709;28;20060;-74
2022/09/04 08:51:44;;;;;;;8.95;3.10;;;21.90;60.90;;;;;;5016327;28;20116;-74
2022/09/04 08:54:22;;;;;;;18.33;3.78;;;22.00;61.10;;;;;;5010797;28;20030;-74
2022/09/04 08:57:25;;;;;;;6.35;3.30;;;22.10;61.80;;;;;;5023442;28;20030;-74
2022/09/04 09:00:12;;;;;;;12.27;3.75;;;22.10;61.80;;;;;;5030200;28;20052;-73
2022/09/04 09:02:38;;;;;;;9.30;3.55;;;22.10;61.70;;;;;;5025368;28;20126;-74
2022/09/04 09:05:24;;;;;;;6.80;3.60;;;22.10;61.60;;;;;;5012290;28;20080;-74
2022/09/04 09:08:08;;;;;;;21.85;9.02;;;22.10;61.60;;;;;;4976400;28;20045;-73
2022/09/04 09:10:53;;;;;;;21.88;7.22;;;22.10;61.40;;;;;;5026872;28;20383;-72
2022/09/04 09:13:37;;;;;;;22.33;8.25;;;22.10;61.70;;;;;;5028233;28;20033;-74
2022/09/04 09:16:33;;;;;;;14.45;6.68;;;22.20;61.60;;;;;;4998953;28;20367;-74
2022/09/04 09:19:36;;;;;;;20.00;7.18;;;22.20;61.50;;;;;;5029103;28;20062;-73
2022/09/04 09:22:22;;;;;;;16.02;5.75;;;22.20;61.40;;;;;;4946261;29;20039;-73
2022/09/04 09:25:07;;;;;;;14.98;4.78;;;22.20;61.60;;;;;;5018417;28;20037;-73
2022/09/04 09:27:57;;;;;;;15.10;4.80;;;22.20;61.40;;;;;;5015384;28;20036;-73
2022/09/04 09:30:23;;;;;;;;;;;22.20;61.30;;;;;;5016531;28;20497;-72
2022/09/04 09:32:58;;;;;;;10.20;5.03;;;22.20;61.40;;;;;;4994944;28;20389;-73
2022/09/04 09:35:54;;;;;;;55.83;39.97;;;22.20;61.40;;;;;;5012528;28;20030;-74
2022/09/04 09:38:33;;;;;;;141.23;112.07;;;22.20;61.20;;;;;;4994766;28;20034;-73
2022/09/04 09:41:37;;;;;;;118.05;91.68;;;22.20;61.30;;;;;;5018016;28;20053;-73
2022/09/04 09:44:25;;;;;;;87.03;64.35;;;22.20;61.40;;;;;;4999283;28;20559;-73
2022/09/04 09:47:25;;;;;;;57.85;42.10;;;22.20;61.30;;;;;;5014820;28;20030;-73
2022/09/04 09:50:30;;;;;;;42.95;32.92;;;22.20;61.30;;;;;;4990189;28;20048;-74
2022/09/04 09:53:21;;;;;;;34.67;26.02;;;22.20;61.20;;;;;;4994520;28;21329;-73
2022/09/04 09:56:06;;;;;;;27.60;21.02;;;22.30;61.10;;;;;;5009909;28;20026;-73
2022/09/04 09:58:43;;;;;;;30.23;21.58;;;22.30;60.60;;;;;;5005763;28;20405;-74
2022/09/04 10:01:24;;;;;;;25.15;17.75;;;22.30;60.50;;;;;;5006669;28;20062;-74
2022/09/04 10:04:17;;;;;;;24.05;15.52;;;22.30;60.40;;;;;;5012090;28;20045;-74
2022/09/04 10:07:12;;;;;;;21.77;14.75;;;22.30;60.30;;;;;;5015328;28;20033;-74
2022/09/04 10:10:06;;;;;;;18.05;11.73;;;22.20;60.40;;;;;;5005509;28;20033;-75
2022/09/04 10:12:57;;;;;;;15.82;9.85;;;22.30;60.10;;;;;;5018111;28;20608;-74
2022/09/04 10:15:51;;;;;;;15.93;8.93;;;22.30;60.20;;;;;;4995200;28;20437;-75
2022/09/04 10:18:42;;;;;;;22.38;9.55;;;22.30;60.40;;;;;;5006396;28;20037;-74
2022/09/04 10:21:35;;;;;;;14.35;7.40;;;22.30;60.20;;;;;;5022467;28;20034;-74
2022/09/04 10:24:23;;;;;;;12.60;6.93;;;22.30;60.00;;;;;;5017483;28;20394;-75
2022/09/04 10:27:20;;;;;;;14.57;7.38;;;22.30;59.90;;;;;;5023405;28;20448;-74
2022/09/04 10:30:06;;;;;;;13.90;8.27;;;22.40;60.30;;;;;;4994727;28;20129;-74
2022/09/04 10:32:47;;;;;;;9.07;5.50;;;22.30;60.90;;;;;;5017119;28;20064;-74
2022/09/04 10:35:34;;;;;;;11.30;5.75;;;22.40;60.00;;;;;;5023178;28;20060;-73
2022/09/04 10:38:06;;;;;;;10.65;5.18;;;22.40;59.90;;;;;;5028464;28;20072;-73
2022/09/04 10:41:10;;;;;;;15.02;6.05;;;22.40;59.30;;;;;;5012528;28;20029;-73
2022/09/04 10:43:54;;;;;;;14.40;6.10;;;22.30;59.70;;;;;;5008574;28;20025;-73
2022/09/04 10:46:56;;;;;;;9.02;4.78;;;22.40;60.10;;;;;;4998867;28;20044;-73
2022/09/04 10:50:02;;;;;;;10.43;4.45;;;22.30;59.70;;;;;;4961261;28;20049;-74
2022/09/04 10:53:00;;;;;;;7.72;3.63;;;22.30;59.20;;;;;;4973701;28;20045;-73
2022/09/04 10:55:41;;;;;;;7.45;4.28;;;22.30;59.40;;;;;;5017321;28;20040;-73
2022/09/04 10:58:28;;;;;;;8.05;3.45;;;22.30;59.50;;;;;;5016194;28;20125;-73
2022/09/04 11:01:36;;;;;;;6.55;3.42;;;22.30;59.60;;;;;;4998576;28;20113;-74
2022/09/04 11:04:12;;;;;;;13.15;5.72;;;22.30;59.50;;;;;;5009697;28;20042;-73
2022/09/04 11:07:10;;;;;;;54.60;37.88;;;22.30;59.50;;;;;;5014574;28;20056;-72
2022/09/04 11:10:17;;;;;;;90.80;74.82;;;22.30;59.50;;;;;;5019717;28;20091;-73
2022/09/04 11:13:03;;;;;;;52.92;41.47;;;22.30;59.60;;;;;;5010209;28;20037;-73
2022/09/04 11:15:57;;;;;;;47.47;37.53;;;22.30;59.60;;;;;;4993091;28;20037;-73
2022/09/04 11:18:55;;;;;;;45.30;33.92;;;22.30;59.40;;;;;;5001884;28;20513;-73
2022/09/04 11:21:58;;;;;;;29.75;21.35;;;22.30;59.30;;;;;;5008405;28;20125;-73
2022/09/04 11:24:36;;;;;;;25.60;18.20;;;22.30;59.10;;;;;;4994831;28;20552;-74
2022/09/04 11:27:48;;;;;;;30.58;21.42;;;22.30;59.10;;;;;;5019570;28;20124;-73
2022/09/04 11:30:24;;;;;;;20.95;13.93;;;22.30;58.80;;;;;;5013360;28;20057;-74
2022/09/04 11:33:35;;;;;;;19.55;12.98;;;22.30;58.70;;;;;;5000580;28;20113;-74
2022/09/04 11:36:22;;;;;;;15.98;9.77;;;22.30;58.50;;;;;;5015371;28;20048;-73
2022/09/04 11:39:11;;;;;;;14.38;9.05;;;22.30;58.30;;;;;;4990201;28;20493;-74
2022/09/04 11:41:46;;;;;;;13.40;6.55;;;22.40;58.50;;;;;;5014456;28;20030;-75
2022/09/04 11:44:23;;;;;;;16.00;7.00;;;22.40;58.00;;;;;;5017391;28;20037;-74
2022/09/04 11:47:17;;;;;;;12.20;5.78;;;22.30;58.10;;;;;;4997935;28;20038;-73
2022/09/04 11:50:01;;;;;;;10.55;5.43;;;22.40;58.30;;;;;;4993597;28;20038;-73
2022/09/04 11:52:54;;;;;;;12.73;7.65;;;22.30;58.30;;;;;;5024464;28;20030;-75
2022/09/04 11:55:41;;;;;;;12.02;5.45;;;22.30;58.70;;;;;;5016821;28;20083;-75
2022/09/04 11:58:12;;;;;;;11.38;6.20;;;22.30;58.60;;;;;;5020741;28;20038;-74
2022/09/04 12:00:58;;;;;;;10.77;4.45;;;22.30;59.20;;;;;;5031094;28;20026;-75
2022/09/04 12:04:34;;;;;;;14.13;5.22;;;22.30;48.50;;;;;;5066320;28;20365;-75
2022/09/04 12:07:27;;;;;;;21.40;5.63;;;22.20;48.10;;;;;;5010196;28;20149;-72
2022/09/04 12:10:27;;;;;;;15.20;5.80;;;22.30;48.40;;;;;;5041989;28;20082;-73
2022/09/04 12:13:27;;;;;;;13.73;6.15;;;22.30;49.20;;;;;;5034387;28;20025;-72
2022/09/04 12:16:08;;;;;;;15.48;5.38;;;22.30;49.20;;;;;;5046023;28;20436;-72
2022/09/04 12:19:08;;;;;;;13.13;5.43;;;22.30;49.30;;;;;;5051520;28;20083;-73
2022/09/04 12:21:40;;;;;;;;;;;22.30;49.40;;;;;;5029161;28;20040;-72
2022/09/04 12:24:50;;;;;;;15.20;6.47;;;22.20;49.60;;;;;;5028532;28;19956;-72
2022/09/04 12:27:21;;;;;;;13.15;5.90;;;22.10;49.90;;;;;;5028986;28;20105;-72
2022/09/04 12:30:05;;;;;;;14.77;5.40;;;22.10;50.10;;;;;;5028541;28;20113;-72
2022/09/04 12:32:45;;;;;;;12.25;5.85;;;22.10;50.30;;;;;;5028581;28;20108;-72
2022/09/04 12:35:23;;;;;;;11.90;5.50;;;22.10;50.40;;;;;;5027284;28;20322;-72
2022/09/04 12:38:27;;;;;;;13.18;5.20;;;22.00;50.50;;;;;;5027444;28;20477;-72
2022/09/04 12:41:20;;;;;;;11.57;5.20;;;22.00;50.50;;;;;;5027726;28;20545;-72
2022/09/04 12:44:00;;;;;;;13.65;5.70;;;22.00;50.60;;;;;;5030955;28;20513;-72
2022/09/04 12:46:49;;;;;;;;;;;22.00;50.60;;;;;;5027577;28;20037;-72
2022/09/04 12:49:15;;;;;;;9.35;5.47;;;22.00;50.70;;;;;;5027923;28;20093;-72
2022/09/04 12:51:51;;;;;;;9.77;4.88;;;22.00;50.80;;;;;;5026951;28;20160;-72
2022/09/04 12:54:52;;;;;;;11.23;4.97;;;22.00;50.80;;;;;;5026899;28;20034;-72
2022/09/04 12:57:33;;;;;;;12.30;4.78;;;22.00;50.90;;;;;;5025981;28;20041;-71
2022/09/04 13:00:16;;;;;;;13.57;5.22;;;22.00;51.00;;;;;;5027885;28;20061;-71
2022/09/04 13:02:57;;;;;;;14.52;5.70;;;22.00;51.00;;;;;;5027829;28;20061;-72
2022/09/04 13:05:32;;;;;;;7.68;5.05;;;22.00;51.10;;;;;;5028119;28;20034;-71
2022/09/04 13:08:21;;;;;;;7.25;4.65;;;22.00;51.00;;;;;;5027603;28;20108;-72
2022/09/04 13:11:07;;;;;;;15.55;5.20;;;22.00;51.20;;;;;;5035479;28;20450;-72
2022/09/04 13:14:03;;;;;;;14.93;5.18;;;22.00;51.20;;;;;;5034812;28;20030;-72
2022/09/04 13:16:38;;;;;;;8.90;4.93;;;22.00;51.40;;;;;;5019758;28;20041;-72
2022/09/04 13:19:59;;;;;;;10.68;4.90;;;22.00;51.40;;;;;;5039828;28;20022;-72
2022/09/04 13:22:40;;;;;;;10.52;5.00;;;22.00;51.30;;;;;;5034101;28;20056;-72
2022/09/04 13:25:26;;;;;;;14.63;4.90;;;22.00;51.40;;;;;;5030514;28;20108;-72
2022/09/04 13:28:01;;;;;;;14.27;5.20;;;22.00;52.10;;;;;;5015304;28;20026;-72
2022/09/04 13:30:29;;;;;;;11.00;5.07;;;22.10;52.00;;;;;;5029063;28;20370;-72
2022/09/04 13:32:58;;;;;;;14.23;5.13;;;22.10;52.20;;;;;;5040799;28;20030;-72
2022/09/04 13:35:43;;;;;;;45.20;6.50;;;22.10;52.50;;;;;;5034059;28;20035;-72
2022/09/04 13:39:00;;;;;;;32.35;5.93;;;22.20;52.80;;;;;;5029776;28;20052;-69
2022/09/04 13:42:00;;;;;;;54.67;6.53;;;22.20;52.70;;;;;;5014229;28;20045;-69
2022/09/04 13:44:44;;;;;;;30.55;5.75;;;22.20;52.60;;;;;;5030927;28;20032;-68
2022/09/04 13:47:21;;;;;;;24.73;5.60;;;22.30;51.90;;;;;;5039827;28;20123;-68
2022/09/04 13:50:08;;;;;;;21.48;5.22;;;22.40;53.20;;;;;;5047558;28;20025;-68
2022/09/04 13:53:05;;;;;;;19.02;5.10;;;22.50;53.50;;;;;;5031528;28;20417;-68
2022/09/04 13:55:37;;;;;;;23.73;5.40;;;22.50;55.00;;;;;;5021780;28;20112;-69
2022/09/04 13:58:12;;;;;;;19.48;4.63;;;22.50;55.00;;;;;;5017485;28;20041;-69
2022/09/04 14:01:00;;;;;;;24.95;4.95;;;22.60;56.30;;;;;;5013505;28;20032;-69
2022/09/04 14:04:06;;;;;;;12.32;4.30;;;22.60;55.10;;;;;;5012224;28;20072;-73
2022/09/04 14:06:35;;;;;;;15.80;4.68;;;22.50;53.00;;;;;;5017432;28;20029;-69
2022/09/04 14:09:03;;;;;;;13.35;4.20;;;22.50;55.10;;;;;;5023701;28;20026;-73
2022/09/04 14:11:55;;;;;;;18.08;3.97;;;22.50;53.00;;;;;;5030179;28;20147;-73
2022/09/04 14:14:40;;;;;;;14.05;7.50;;;22.40;52.40;;;;;;5033954;28;20655;-73
2022/09/04 14:17:07;;;;;;;19.25;7.93;;;22.40;51.10;;;;;;5030893;28;20075;-73
2022/09/04 14:19:59;;;;;;;17.40;9.07;;;22.40;50.40;;;;;;5029616;28;20025;-73